Time;durP1;ratioP1;P1;durP2;ratioP2;P2;SDS_P1;SDS_P2;PMS_P1;PMS_P2;Temp;Humidity;BMP_temperature;BMP_pressure;BME280_temperature;BME280_humidity;BME280_pressure;Samples;Min_cycle;Max_cycle;Signal;HPM_P1;HPM_P2
2021/07/03 00:01:24;;;;;;;9.43;6.65;;;;;;;;;;4930808;29;20654;-54
2021/07/03 00:03:51;;;;;;;8.77;6.32;;;;;;;;;;4913995;29;20123;-53
2021/07/03 00:06:20;;;;;;;8.52;6.50;;;;;;;;;;4920911;29;20055;-53
2021/07/03 00:08:46;;;;;;;10.18;6.68;;;;;;;;;;4931352;29;20051;-52
2021/07/03 00:11:13;;;;;;;10.25;6.07;;;;;;;;;;4923178;29;20094;-50
2021/07/03 00:13:40;;;;;;;10.82;6.53;;;;;;;;;;4931439;29;20039;-53
2021/07/03 00:16:07;;;;;;;7.97;6.18;;;;;;;;;;4918286;29;20040;-55
2021/07/03 00:18:35;;;;;;;8.95;6.00;;;;;;;;;;4932873;29;20059;-53
2021/07/03 00:21:02;;;;;;;8.82;6.47;;;;;;;;;;4931306;29;20118;-56
2021/07/03 00:23:30;;;;;;;8.55;6.28;;;;;;;;;;4922615;29;20048;-54
2021/07/03 00:25:57;;;;;;;8.50;6.53;;;;;;;;;;4925735;29;20048;-53
2021/07/03 00:28:24;;;;;;;10.23;6.60;;;;;;;;;;4932933;29;20415;-55
2021/07/03 00:30:51;;;;;;;8.98;6.55;;;;;;;;;;4925492;29;20047;-52
2021/07/03 00:33:17;;;;;;;7.85;6.60;;;;;;;;;;4931121;29;20064;-54
2021/07/03 00:35:44;;;;;;;10.50;6.45;;;;;;;;;;4932725;29;20051;-54
2021/07/03 00:38:11;;;;;;;7.88;6.35;;;;;;;;;;4932595;29;20113;-52
2021/07/03 00:40:39;;;;;;;9.48;6.07;;;;;;;;;;4924731;29;20098;-55
2021/07/03 00:43:06;;;;;;;7.78;6.40;;;;;;;;;;4930130;29;20277;-51
2021/07/03 00:45:34;;;;;;;9.65;6.45;;;;;;;;;;4930689;29;20489;-55
2021/07/03 00:48:01;;;;;;;8.88;6.70;;;;;;;;;;4928994;29;20170;-55
2021/07/03 00:50:29;;;;;;;10.82;7.20;;;;;;;;;;4912447;29;20064;-55
2021/07/03 00:52:56;;;;;;;8.35;7.10;;;;;;;;;;4928595;29;20062;-55
2021/07/03 00:55:26;;;;;;;9.00;6.30;;;;;;;;;;4932153;28;20047;-55
2021/07/03 00:57:55;;;;;;;8.43;6.90;;;;;;;;;;4922614;29;20102;-55
2021/07/03 01:00:26;;;;;;;8.40;6.70;;;;;;;;;;4928152;29;20036;-52
2021/07/03 01:02:55;;;;;;;14.90;7.05;;;;;;;;;;4931897;29;20050;-52
2021/07/03 01:05:22;;;;;;;9.32;7.10;;;;;;;;;;4930974;29;20047;-53
2021/07/03 01:07:49;;;;;;;10.15;7.18;;;;;;;;;;4934631;28;20131;-54
2021/07/03 01:10:19;;;;;;;9.32;7.03;;;;;;;;;;4927406;29;20051;-52
2021/07/03 01:12:47;;;;;;;9.50;7.65;;;;;;;;;;4930377;29;20048;-55
2021/07/03 01:15:15;;;;;;;10.43;7.85;;;;;;;;;;4928594;29;20509;-51
2021/07/03 01:17:43;;;;;;;9.55;7.00;;;;;;;;;;4913009;29;20131;-52
2021/07/03 01:20:10;;;;;;;9.07;6.78;;;;;;;;;;4913803;29;20419;-54
2021/07/03 01:22:38;;;;;;;10.85;6.50;;;;;;;;;;4925527;29;20105;-55
2021/07/03 01:25:06;;;;;;;9.43;7.00;;;;;;;;;;4929164;29;20048;-53
2021/07/03 01:27:59;;;;;;;9.15;7.60;;;;;;;;;;5067658;28;20423;-52
2021/07/03 01:30:27;;;;;;;9.55;7.05;;;;;;;;;;5064382;28;20116;-54
2021/07/03 01:32:54;;;;;;;9.95;6.70;;;;;;;;;;5036561;28;20045;-53
2021/07/03 01:35:41;;;;;;;9.85;7.10;;;;;;;;;;5045213;28;20042;-52
2021/07/03 01:38:16;;;;;;;9.05;6.93;;;;;;;;;;5044803;28;20110;-55
2021/07/03 01:40:44;;;;;;;11.02;7.10;;;;;;;;;;5042786;28;20045;-53
2021/07/03 01:43:12;;;;;;;8.90;7.28;;;;;;;;;;5066889;28;20045;-54
2021/07/03 01:45:39;;;;;;;9.70;7.50;;;;;;;;;;5066878;28;20502;-54
2021/07/03 01:48:06;;;;;;;9.38;6.80;;;;;;;;;;5058505;28;20159;-55
2021/07/03 01:50:35;;;;;;;9.45;7.07;;;;;;;;;;5041874;28;20045;-55
2021/07/03 01:53:02;;;;;;;8.27;6.68;;;;;;;;;;5051893;28;20480;-50
2021/07/03 01:55:32;;;;;;;8.35;6.88;;;;;;;;;;5057072;28;20045;-53
2021/07/03 01:57:59;;;;;;;9.43;6.82;;;;;;;;;;5056696;28;20045;-51
2021/07/03 02:00:33;;;;;;;9.15;6.65;;;;;;;;;;5058645;28;20041;-54
2021/07/03 02:03:11;;;;;;;9.65;7.18;;;;;;;;;;5049089;28;20168;-51
2021/07/03 02:05:43;;;;;;;10.30;6.80;;;;;;;;;;5047929;28;20045;-54
2021/07/03 02:08:14;;;;;;;9.30;7.47;;;;;;;;;;5051817;28;20131;-54
2021/07/03 02:10:43;;;;;;;9.02;7.35;;;;;;;;;;5029333;28;20052;-54
2021/07/03 02:13:11;;;;;;;8.07;6.80;;;;;;;;;;5062043;28;20037;-50
2021/07/03 02:15:39;;;;;;;12.23;7.60;;;;;;;;;;5064099;28;20121;-53
2021/07/03 02:18:18;;;;;;;9.05;7.50;;;;;;;;;;5049083;28;20036;-54
2021/07/03 02:20:45;;;;;;;10.77;7.13;;;;;;;;;;5044294;28;20119;-54
2021/07/03 02:23:17;;;;;;;9.77;6.88;;;;;;;;;;5057261;28;20029;-51
2021/07/03 02:25:48;;;;;;;9.65;7.57;;;;;;;;;;5046302;28;20537;-54
2021/07/03 02:28:21;;;;;;;8.27;7.23;;;;;;;;;;5047735;28;20044;-54
2021/07/03 02:30:55;;;;;;;10.20;7.70;;;;;;;;;;5047860;28;20662;-52
2021/07/03 02:33:22;;;;;;;9.68;7.47;;;;;;;;;;5051764;28;20491;-51
2021/07/03 02:35:53;;;;;;;10.70;7.15;;;;;;;;;;5062828;28;20445;-53
2021/07/03 02:38:22;;;;;;;9.85;7.50;;;;;;;;;;5045637;28;20038;-52
2021/07/03 02:40:49;;;;;;;9.73;7.78;;;;;;;;;;5035623;28;20042;-54
2021/07/03 02:43:16;;;;;;;9.68;7.35;;;;;;;;;;5032105;28;20065;-54
2021/07/03 02:45:47;;;;;;;10.55;7.85;;;;;;;;;;5033881;28;20063;-54
2021/07/03 02:48:14;;;;;;;9.32;7.70;;;;;;;;;;5052411;28;20056;-52
2021/07/03 02:50:41;;;;;;;9.48;7.57;;;;;;;;;;5037388;28;20158;-50
2021/07/03 02:53:09;;;;;;;10.63;7.80;;;;;;;;;;5036267;28;20514;-52
2021/07/03 02:55:37;;;;;;;10.40;7.53;;;;;;;;;;5007114;28;20045;-53
2021/07/03 02:58:04;;;;;;;10.32;7.68;;;;;;;;;;5045221;28;20045;-53
2021/07/03 03:00:31;;;;;;;12.77;8.68;;;;;;;;;;5049281;28;20069;-50
2021/07/03 03:02:58;;;;;;;10.75;7.38;;;;;;;;;;5031540;28;20053;-50
2021/07/03 03:05:25;;;;;;;12.50;8.40;;;;;;;;;;5032657;28;20644;-50
2021/07/03 03:07:52;;;;;;;9.80;7.47;;;;;;;;;;5045764;28;20566;-51
2021/07/03 03:10:20;;;;;;;9.30;7.45;;;;;;;;;;5029944;28;20065;-50
2021/07/03 03:12:49;;;;;;;8.20;6.57;;;;;;;;;;5032451;28;20042;-53
2021/07/03 03:15:21;;;;;;;9.07;6.47;;;;;;;;;;5033614;28;20068;-53
2021/07/03 03:17:51;;;;;;;11.60;7.68;;;;;;;;;;5037985;28;20103;-52
2021/07/03 03:20:18;;;;;;;12.20;6.97;;;;;;;;;;5048205;28;20076;-52
2021/07/03 03:22:46;;;;;;;9.43;7.18;;;;;;;;;;5039473;28;20049;-53
2021/07/03 03:25:15;;;;;;;8.77;6.78;;;;;;;;;;5013341;28;20042;-51
2021/07/03 03:27:42;;;;;;;10.48;7.05;;;;;;;;;;5013413;28;20496;-53
2021/07/03 03:30:10;;;;;;;8.60;6.70;;;;;;;;;;5020022;28;20112;-54
2021/07/03 03:32:41;;;;;;;9.68;7.07;;;;;;;;;;5025566;28;20048;-53
2021/07/03 03:35:09;;;;;;;9.68;7.25;;;;;;;;;;5016498;28;20037;-49
2021/07/03 03:37:36;;;;;;;9.93;6.97;;;;;;;;;;5031102;28;20487;-54
2021/07/03 03:40:06;;;;;;;9.68;6.97;;;;;;;;;;5042171;28;20430;-54
2021/07/03 03:42:34;;;;;;;8.52;7.00;;;;;;;;;;5035084;28;20499;-52
2021/07/03 03:45:04;;;;;;;7.70;6.72;;;;;;;;;;5045001;28;20045;-50
2021/07/03 03:47:31;;;;;;;9.65;7.57;;;;;;;;;;5031677;28;20033;-51
2021/07/03 03:49:58;;;;;;;10.65;7.72;;;;;;;;;;5030596;28;20103;-53
2021/07/03 03:52:25;;;;;;;11.43;7.63;;;;;;;;;;5028913;28;20535;-56
2021/07/03 03:54:53;;;;;;;9.90;7.47;;;;;;;;;;5047748;28;20041;-54
2021/07/03 03:57:30;;;;;;;9.73;7.32;;;;;;;;;;5038311;28;20094;-53
2021/07/03 04:00:05;;;;;;;10.57;7.60;;;;;;;;;;5047848;28;20055;-52
2021/07/03 04:02:40;;;;;;;10.20;7.63;;;;;;;;;;5039088;28;20124;-54
2021/07/03 04:05:08;;;;;;;10.27;8.02;;;;;;;;;;5030494;28;20041;-52
2021/07/03 04:07:37;;;;;;;10.00;8.02;;;;;;;;;;5036636;28;20047;-54
2021/07/03 04:10:05;;;;;;;13.60;8.75;;;;;;;;;;5049928;28;20041;-53
2021/07/03 04:12:32;;;;;;;9.45;6.93;;;;;;;;;;5046996;28;20040;-54
2021/07/03 04:14:59;;;;;;;12.52;7.90;;;;;;;;;;5051184;28;20124;-53
2021/07/03 04:17:26;;;;;;;10.15;7.38;;;;;;;;;;5047259;28;20051;-52
2021/07/03 04:19:53;;;;;;;12.02;8.00;;;;;;;;;;5035712;28;20073;-54
2021/07/03 04:22:20;;;;;;;10.30;7.68;;;;;;;;;;5047283;28;20063;-53
2021/07/03 04:24:46;;;;;;;9.32;7.72;;;;;;;;;;5022735;28;20128;-53
2021/07/03 04:27:13;;;;;;;9.10;7.28;;;;;;;;;;5039710;28;20128;-54
2021/07/03 04:29:40;;;;;;;9.15;6.95;;;;;;;;;;5032193;28;20410;-54
2021/07/03 04:32:07;;;;;;;11.65;7.32;;;;;;;;;;5026157;28;20045;-51
2021/07/03 04:34:34;;;;;;;9.77;7.43;;;;;;;;;;5031756;28;20048;-53
2021/07/03 04:37:01;;;;;;;10.75;7.90;;;;;;;;;;5043043;28;20041;-53
2021/07/03 04:39:28;;;;;;;11.68;8.05;;;;;;;;;;5038144;28;20040;-54
2021/07/03 04:41:55;;;;;;;9.93;7.97;;;;;;;;;;5033333;28;20410;-52
2021/07/03 04:44:21;;;;;;;11.60;8.15;;;;;;;;;;5046649;28;20132;-53
2021/07/03 04:46:48;;;;;;;11.80;7.40;;;;;;;;;;5046524;28;20041;-49
2021/07/03 04:49:15;;;;;;;10.95;7.43;;;;;;;;;;5046923;28;20049;-53
2021/07/03 04:51:43;;;;;;;11.45;7.47;;;;;;;;;;5026596;28;20040;-53
2021/07/03 04:54:10;;;;;;;9.50;7.68;;;;;;;;;;5031584;28;20128;-52
2021/07/03 04:56:36;;;;;;;10.38;7.78;;;;;;;;;;5044367;28;20502;-52
2021/07/03 04:59:03;;;;;;;11.35;8.07;;;;;;;;;;5030750;28;20069;-55
2021/07/03 05:01:30;;;;;;;9.77;7.63;;;;;;;;;;5029873;28;20454;-52
2021/07/03 05:03:57;;;;;;;8.80;7.05;;;;;;;;;;5035700;28;20045;-48
2021/07/03 05:06:24;;;;;;;9.82;7.07;;;;;;;;;;5029978;28;20128;-51
2021/07/03 05:08:50;;;;;;;9.27;6.82;;;;;;;;;;5029318;28;20061;-52
2021/07/03 05:11:17;;;;;;;12.13;7.40;;;;;;;;;;5031468;28;20650;-50
2021/07/03 05:13:44;;;;;;;8.15;6.47;;;;;;;;;;5034414;28;20079;-52
2021/07/03 05:16:11;;;;;;;9.90;6.68;;;;;;;;;;5048640;28;20131;-49
2021/07/03 05:18:38;;;;;;;9.13;6.75;;;;;;;;;;5047673;28;20198;-52
2021/07/03 05:21:04;;;;;;;7.55;6.28;;;;;;;;;;5033668;28;20103;-49
2021/07/03 05:23:31;;;;;;;10.40;6.53;;;;;;;;;;5033333;28;20047;-49
2021/07/03 05:25:58;;;;;;;10.32;6.38;;;;;;;;;;5042514;28;20136;-53
2021/07/03 05:28:25;;;;;;;11.30;6.50;;;;;;;;;;5045280;28;20069;-50
2021/07/03 05:30:52;;;;;;;10.35;6.18;;;;;;;;;;5043905;28;20043;-50
2021/07/03 05:33:20;;;;;;;10.15;6.80;;;;;;;;;;5025713;28;20518;-49
2021/07/03 05:35:46;;;;;;;9.02;7.07;;;;;;;;;;5042091;28;20044;-51
2021/07/03 05:38:13;;;;;;;9.13;6.40;;;;;;;;;;5039107;28;20487;-48
2021/07/03 05:40:40;;;;;;;9.15;6.63;;;;;;;;;;5041164;28;20069;-47
2021/07/03 05:43:07;;;;;;;9.15;6.82;;;;;;;;;;5033163;28;20131;-47
2021/07/03 05:45:34;;;;;;;8.02;6.13;;;;;;;;;;5038602;28;20034;-47
2021/07/03 05:48:00;;;;;;;8.70;6.70;;;;;;;;;;5031025;28;20132;-51
2021/07/03 05:50:30;;;;;;;8.48;6.50;;;;;;;;;;5028313;28;20049;-47
2021/07/03 05:52:57;;;;;;;10.57;6.35;;;;;;;;;;5015367;28;20056;-52
2021/07/03 05:55:24;;;;;;;10.52;6.65;;;;;;;;;;5048480;28;20498;-49
2021/07/03 05:57:51;;;;;;;13.20;6.43;;;;;;;;;;5049365;28;20711;-49
2021/07/03 06:00:18;;;;;;;10.35;6.65;;;;;;;;;;5042940;28;20081;-51
2021/07/03 06:02:45;;;;;;;11.40;7.25;;;;;;;;;;5015910;28;20078;-47
2021/07/03 06:05:12;;;;;;;9.77;6.82;;;;;;;;;;5032642;28;20524;-50
2021/07/03 06:07:39;;;;;;;9.02;7.13;;;;;;;;;;5043536;28;20482;-54
2021/07/03 06:10:06;;;;;;;11.00;7.30;;;;;;;;;;5027500;28;20037;-52
2021/07/03 06:12:33;;;;;;;9.30;7.43;;;;;;;;;;5045643;28;20560;-51
2021/07/03 06:15:00;;;;;;;9.55;7.03;;;;;;;;;;5051352;28;20073;-53
2021/07/03 06:17:28;;;;;;;8.35;6.40;;;;;;;;;;5040780;28;20049;-54
2021/07/03 06:19:54;;;;;;;11.88;6.85;;;;;;;;;;5024955;28;20507;-53
2021/07/03 06:22:21;;;;;;;9.85;7.35;;;;;;;;;;5031836;28;20112;-52
2021/07/03 06:24:48;;;;;;;10.48;7.05;;;;;;;;;;5014699;28;20049;-54
2021/07/03 06:27:15;;;;;;;11.52;6.78;;;;;;;;;;5052230;28;20076;-55
2021/07/03 06:29:43;;;;;;;11.93;6.97;;;;;;;;;;5038405;28;20578;-54
2021/07/03 06:32:10;;;;;;;10.00;7.00;;;;;;;;;;5043131;28;20047;-53
2021/07/03 06:34:37;;;;;;;9.70;6.50;;;;;;;;;;5043331;28;20041;-54
2021/07/03 06:37:04;;;;;;;11.80;8.32;;;;;;;;;;5042461;28;20132;-55
2021/07/03 06:39:32;;;;;;;11.23;6.13;;;;;;;;;;5029714;28;20104;-54
2021/07/03 06:41:58;;;;;;;10.40;6.38;;;;;;;;;;5014216;28;20045;-50
2021/07/03 06:44:25;;;;;;;8.00;6.15;;;;;;;;;;5026788;28;20136;-51
2021/07/03 06:46:52;;;;;;;7.57;5.97;;;;;;;;;;5040817;28;20539;-53
2021/07/03 06:49:19;;;;;;;10.98;6.57;;;;;;;;;;5024873;28;20066;-52
2021/07/03 06:51:46;;;;;;;9.20;6.45;;;;;;;;;;5017087;28;20035;-51
2021/07/03 06:54:12;;;;;;;8.48;5.57;;;;;;;;;;5016753;28;20034;-53
2021/07/03 06:56:39;;;;;;;6.63;5.50;;;;;;;;;;5038972;28;20051;-51
2021/07/03 06:59:06;;;;;;;7.60;5.93;;;;;;;;;;5047732;28;20474;-53
2021/07/03 07:01:33;;;;;;;7.82;5.45;;;;;;;;;;5042543;28;20041;-52
2021/07/03 07:04:00;;;;;;;12.50;5.38;;;;;;;;;;5026549;28;20442;-53
2021/07/03 07:06:26;;;;;;;6.60;5.10;;;;;;;;;;5043720;28;20086;-53
2021/07/03 07:08:53;;;;;;;7.30;5.55;;;;;;;;;;5044011;28;20124;-54
2021/07/03 07:11:20;;;;;;;7.35;5.25;;;;;;;;;;5037905;28;20049;-52
2021/07/03 07:13:47;;;;;;;8.18;5.55;;;;;;;;;;5042361;28;20041;-50
2021/07/03 07:16:13;;;;;;;7.63;5.47;;;;;;;;;;5050280;28;20051;-53
2021/07/03 07:18:40;;;;;;;9.82;5.18;;;;;;;;;;5044426;28;20057;-55
2021/07/03 07:21:07;;;;;;;6.75;5.10;;;;;;;;;;5021852;28;20594;-54
2021/07/03 07:23:34;;;;;;;7.72;5.13;;;;;;;;;;5031460;28;20045;-52
2021/07/03 07:26:00;;;;;;;10.63;5.85;;;;;;;;;;5049908;28;20110;-53
2021/07/03 07:28:27;;;;;;;9.18;5.63;;;;;;;;;;5039278;28;20132;-53
2021/07/03 07:30:54;;;;;;;7.53;5.40;;;;;;;;;;5046669;28;20037;-54
2021/07/03 07:33:21;;;;;;;6.75;4.80;;;;;;;;;;5023829;28;20036;-53
2021/07/03 07:35:47;;;;;;;8.10;5.45;;;;;;;;;;5031427;28;20037;-50
2021/07/03 07:38:14;;;;;;;7.55;5.38;;;;;;;;;;5045678;28;20044;-55
2021/07/03 07:40:41;;;;;;;11.40;5.15;;;;;;;;;;5031946;28;20052;-54
2021/07/03 07:43:08;;;;;;;6.80;5.38;;;;;;;;;;5036709;28;20067;-49
2021/07/03 07:45:35;;;;;;;7.32;4.97;;;;;;;;;;5029754;28;20584;-49
2021/07/03 07:48:01;;;;;;;7.50;5.40;;;;;;;;;;5036565;28;20045;-49
2021/07/03 07:50:33;;;;;;;7.00;4.90;;;;;;;;;;5033430;28;20042;-52
2021/07/03 07:53:00;;;;;;;8.20;4.90;;;;;;;;;;5027640;28;20525;-54
2021/07/03 07:55:26;;;;;;;8.05;5.50;;;;;;;;;;5028249;28;20038;-54
2021/07/03 07:57:53;;;;;;;7.72;5.72;;;;;;;;;;5030559;28;20041;-54
2021/07/03 08:00:22;;;;;;;8.93;4.95;;;;;;;;;;5041489;28;20041;-51
2021/07/03 08:02:49;;;;;;;7.07;5.15;;;;;;;;;;5030178;28;20040;-55
2021/07/03 08:05:17;;;;;;;6.32;4.97;;;;;;;;;;5034890;28;20502;-52
2021/07/03 08:07:43;;;;;;;8.48;5.40;;;;;;;;;;5031288;28;20034;-52
2021/07/03 08:10:11;;;;;;;6.63;5.30;;;;;;;;;;5029812;28;20046;-53
2021/07/03 08:12:38;;;;;;;8.07;5.50;;;;;;;;;;5029134;28;20413;-52
2021/07/03 08:15:06;;;;;;;6.05;5.22;;;;;;;;;;5034677;28;20075;-55
2021/07/03 08:17:33;;;;;;;8.02;4.90;;;;;;;;;;5033979;28;20038;-55
2021/07/03 08:20:00;;;;;;;7.15;5.00;;;;;;;;;;5032804;28;20164;-54
2021/07/03 08:22:28;;;;;;;6.60;5.15;;;;;;;;;;5036900;28;20128;-50
2021/07/03 08:24:54;;;;;;;10.30;5.85;;;;;;;;;;5039716;28;20045;-53
2021/07/03 08:27:22;;;;;;;6.82;5.03;;;;;;;;;;5034904;28;20037;-53
2021/07/03 08:29:48;;;;;;;7.10;4.90;;;;;;;;;;5033546;28;20123;-54
2021/07/03 08:32:15;;;;;;;7.20;5.30;;;;;;;;;;5021922;28;20033;-53
2021/07/03 08:34:42;;;;;;;6.13;4.95;;;;;;;;;;5040547;28;20048;-53
2021/07/03 08:37:09;;;;;;;9.63;5.25;;;;;;;;;;5048211;28;20128;-51
2021/07/03 08:39:35;;;;;;;6.57;4.90;;;;;;;;;;5030999;28;20499;-50
2021/07/03 08:42:02;;;;;;;6.95;4.80;;;;;;;;;;5021771;28;20133;-48
2021/07/03 08:44:29;;;;;;;7.63;5.32;;;;;;;;;;5026708;28;20041;-51
2021/07/03 08:46:56;;;;;;;6.78;5.65;;;;;;;;;;5031508;28;20045;-49
2021/07/03 08:49:23;;;;;;;7.13;5.55;;;;;;;;;;5034481;28;20119;-49
2021/07/03 08:51:50;;;;;;;8.00;5.70;;;;;;;;;;5036422;28;20041;-54
2021/07/03 08:54:17;;;;;;;7.38;5.55;;;;;;;;;;5027558;28;20422;-47
2021/07/03 08:56:44;;;;;;;7.28;5.65;;;;;;;;;;5028880;28;20069;-53
2021/07/03 08:59:17;;;;;;;8.30;5.20;;;;;;;;;;5029372;28;20052;-50
2021/07/03 09:01:58;;;;;;;8.60;6.00;;;;;;;;;;5027652;28;20059;-52
2021/07/03 09:04:35;;;;;;;7.00;5.50;;;;;;;;;;5019035;28;20450;-54
2021/07/03 09:07:11;;;;;;;6.43;5.25;;;;;;;;;;5019966;28;20044;-50
2021/07/03 09:09:38;;;;;;;8.20;5.60;;;;;;;;;;5024842;28;20038;-52
2021/07/03 09:12:05;;;;;;;7.00;5.75;;;;;;;;;;5023028;28;20130;-51
2021/07/03 09:14:32;;;;;;;6.88;5.38;;;;;;;;;;5016829;28;20130;-55
2021/07/03 09:16:59;;;;;;;6.32;5.03;;;;;;;;;;5020971;28;20029;-53
2021/07/03 09:19:27;;;;;;;7.80;6.25;;;;;;;;;;5020483;28;20132;-52
2021/07/03 09:21:54;;;;;;;6.90;5.30;;;;;;;;;;5018353;28;20573;-50
2021/07/03 09:24:21;;;;;;;7.32;5.43;;;;;;;;;;5028531;28;20080;-52
2021/07/03 09:26:58;;;;;;;8.63;5.45;;;;;;;;;;5022459;28;20148;-50
2021/07/03 09:29:24;;;;;;;9.35;6.20;;;;;;;;;;5029293;28;20149;-52
2021/07/03 09:31:51;;;;;;;8.00;5.30;;;;;;;;;;5025888;28;20065;-54
2021/07/03 09:34:19;;;;;;;6.97;5.07;;;;;;;;;;5031022;28;20119;-51
2021/07/03 09:36:46;;;;;;;9.57;5.57;;;;;;;;;;5021178;28;20053;-50
2021/07/03 09:39:22;;;;;;;8.65;5.72;;;;;;;;;;5021819;28;20132;-49
2021/07/03 09:41:50;;;;;;;6.90;5.80;;;;;;;;;;5030092;28;20046;-52
2021/07/03 09:44:17;;;;;;;7.03;5.50;;;;;;;;;;5020548;28;20096;-49
2021/07/03 09:46:51;;;;;;;8.43;5.70;;;;;;;;;;5037292;28;20082;-50
2021/07/03 09:49:21;;;;;;;6.85;5.78;;;;;;;;;;5030720;28;20037;-51
2021/07/03 09:51:52;;;;;;;7.22;5.93;;;;;;;;;;5025630;28;20041;-54
2021/07/03 09:54:21;;;;;;;7.68;5.88;;;;;;;;;;5024500;28;20037;-49
2021/07/03 09:56:58;;;;;;;9.55;5.63;;;;;;;;;;5041763;28;20059;-51
2021/07/03 09:59:28;;;;;;;7.57;5.53;;;;;;;;;;5037121;28;20046;-51
2021/07/03 10:01:55;;;;;;;10.57;5.20;;;;;;;;;;5030403;28;20045;-52
2021/07/03 10:04:22;;;;;;;7.00;5.63;;;;;;;;;;5035589;28;20108;-51
2021/07/03 10:06:51;;;;;;;7.47;5.85;;;;;;;;;;5048364;28;20430;-54
2021/07/03 10:09:32;;;;;;;7.18;6.18;;;;;;;;;;5025184;28;20036;-51
2021/07/03 10:12:01;;;;;;;7.90;5.53;;;;;;;;;;5035345;28;20060;-49
2021/07/03 10:14:35;;;;;;;7.45;5.32;;;;;;;;;;5044707;28;20041;-51
2021/07/03 10:17:02;;;;;;;7.90;5.90;;;;;;;;;;5042534;28;20042;-48
2021/07/03 10:19:33;;;;;;;8.82;5.60;;;;;;;;;;5029377;28;20571;-53
2021/07/03 10:22:15;;;;;;;9.10;6.18;;;;;;;;;;5037225;28;20050;-52
2021/07/03 10:25:08;;;;;;;6.57;5.68;;;;;;;;;;5036417;28;20053;-55
2021/07/03 10:27:35;;;;;;;8.45;6.00;;;;;;;;;;5038018;28;20053;-54
2021/07/03 10:30:04;;;;;;;9.40;6.13;;;;;;;;;;5041840;28;20179;-56
2021/07/03 10:32:35;;;;;;;6.68;5.40;;;;;;;;;;5023139;28;20462;-54
2021/07/03 10:35:08;;;;;;;6.75;5.57;;;;;;;;;;5016759;28;20042;-51
2021/07/03 10:37:35;;;;;;;6.95;5.25;;;;;;;;;;5024721;28;20119;-56
2021/07/03 10:40:23;;;;;;;6.43;5.18;;;;;;;;;;5023702;28;20060;-50
2021/07/03 10:42:51;;;;;;;8.27;5.50;;;;;;;;;;5022935;28;20049;-54
2021/07/03 10:45:22;;;;;;;6.13;4.63;;;;;;;;;;5030758;28;20171;-56
2021/07/03 10:47:49;;;;;;;7.88;4.47;;;;;;;;;;5034008;28;20041;-54
2021/07/03 10:50:19;;;;;;;8.05;5.22;;;;;;;;;;5028672;28;20033;-55
2021/07/03 10:52:46;;;;;;;6.32;4.72;;;;;;;;;;5027929;28;20048;-55
2021/07/03 10:55:14;;;;;;;6.65;4.72;;;;;;;;;;5031412;28;20403;-55
2021/07/03 10:57:42;;;;;;;6.20;4.40;;;;;;;;;;5032176;28;20410;-55
2021/07/03 11:00:11;;;;;;;5.43;4.10;;;;;;;;;;5030311;28;20412;-55
2021/07/03 11:02:38;;;;;;;5.68;3.90;;;;;;;;;;5030390;28;20056;-52
2021/07/03 11:05:11;;;;;;;6.82;4.10;;;;;;;;;;5031914;28;20045;-58
2021/07/03 11:07:37;;;;;;;5.85;4.38;;;;;;;;;;5033317;28;20136;-58
2021/07/03 11:10:06;;;;;;;6.43;4.80;;;;;;;;;;5028655;28;20121;-55
2021/07/03 11:12:42;;;;;;;6.40;4.72;;;;;;;;;;5026427;28;20559;-51
2021/07/03 11:15:10;;;;;;;5.90;4.20;;;;;;;;;;5021600;28;20133;-50
2021/07/03 11:17:37;;;;;;;8.13;4.70;;;;;;;;;;5047827;28;20045;-53
2021/07/03 11:20:04;;;;;;;5.30;4.38;;;;;;;;;;5015931;28;20101;-52
2021/07/03 11:22:31;;;;;;;5.70;4.28;;;;;;;;;;5029541;28;20095;-53
2021/07/03 11:24:59;;;;;;;5.85;4.30;;;;;;;;;;5027699;28;20225;-54
2021/07/03 11:27:34;;;;;;;4.57;3.88;;;;;;;;;;5023565;28;20196;-50
2021/07/03 11:30:05;;;;;;;5.80;4.30;;;;;;;;;;5033301;28;20083;-54
2021/07/03 11:32:32;;;;;;;6.50;4.70;;;;;;;;;;5027818;28;20049;-53
2021/07/03 11:35:00;;;;;;;4.90;4.07;;;;;;;;;;5031078;28;20038;-53
2021/07/03 11:37:33;;;;;;;6.72;4.30;;;;;;;;;;5029399;28;20041;-51
2021/07/03 11:40:05;;;;;;;5.63;4.22;;;;;;;;;;5017737;28;20143;-51
2021/07/03 11:42:36;;;;;;;5.75;4.05;;;;;;;;;;5013122;28;20080;-51
2021/07/03 11:45:08;;;;;;;5.50;4.10;;;;;;;;;;5027747;28;20041;-52
2021/07/03 11:47:35;;;;;;;5.53;4.45;;;;;;;;;;5024162;28;20686;-51
2021/07/03 11:50:03;;;;;;;7.68;4.40;;;;;;;;;;5023988;28;20083;-52
2021/07/03 11:52:39;;;;;;;6.72;4.43;;;;;;;;;;5037066;28;20548;-53
2021/07/03 11:55:07;;;;;;;7.55;4.25;;;;;;;;;;5031240;28;20042;-51
2021/07/03 11:57:41;;;;;;;5.65;4.68;;;;;;;;;;5027318;28;20422;-54
2021/07/03 12:00:17;;;;;;;6.22;4.93;;;;;;;;;;5032098;28;20068;-51
2021/07/03 12:02:44;;;;;;;6.05;4.90;;;;;;;;;;5030303;28;20132;-53
2021/07/03 12:05:12;;;;;;;5.68;4.32;;;;;;;;;;5027853;28;20084;-54
2021/07/03 12:07:39;;;;;;;5.45;4.47;;;;;;;;;;5032717;28;20057;-54
2021/07/03 12:10:08;;;;;;;6.60;4.38;;;;;;;;;;5022809;28;20073;-52
2021/07/03 12:12:35;;;;;;;5.82;4.75;;;;;;;;;;5023308;28;20095;-55
2021/07/03 12:15:04;;;;;;;6.18;4.40;;;;;;;;;;5013030;28;20084;-53
2021/07/03 12:17:31;;;;;;;7.25;4.68;;;;;;;;;;5016518;28;20116;-55
2021/07/03 12:20:04;;;;;;;6.57;4.47;;;;;;;;;;5018734;28;20041;-55
2021/07/03 12:22:31;;;;;;;5.78;4.60;;;;;;;;;;5028666;28;20189;-53
2021/07/03 12:25:08;;;;;;;5.57;4.57;;;;;;;;;;5032317;28;20050;-54
2021/07/03 12:27:36;;;;;;;5.80;5.03;;;;;;;;;;5031103;28;20053;-54
2021/07/03 12:30:04;;;;;;;5.72;4.50;;;;;;;;;;5030966;28;20116;-55
2021/07/03 12:32:42;;;;;;;4.65;3.95;;;;;;;;;;5030505;28;20041;-52
2021/07/03 12:35:13;;;;;;;5.63;4.30;;;;;;;;;;5028367;28;20042;-54
2021/07/03 12:37:40;;;;;;;4.95;4.30;;;;;;;;;;5012367;28;20060;-56
2021/07/03 12:40:10;;;;;;;5.28;4.20;;;;;;;;;;5043410;28;20041;-55
2021/07/03 12:42:37;;;;;;;5.75;4.57;;;;;;;;;;5019034;28;20042;-52
2021/07/03 12:45:05;;;;;;;6.57;4.30;;;;;;;;;;5032043;28;20045;-53
2021/07/03 12:47:32;;;;;;;6.97;4.90;;;;;;;;;;5035400;28;20041;-51
2021/07/03 12:50:00;;;;;;;4.88;4.18;;;;;;;;;;5031166;28;20071;-54
2021/07/03 12:52:37;;;;;;;4.43;3.58;;;;;;;;;;5015547;28;20113;-53
2021/07/03 12:55:06;;;;;;;5.65;4.03;;;;;;;;;;5027197;28;20037;-51
2021/07/03 12:57:40;;;;;;;6.55;3.75;;;;;;;;;;5021999;28;20061;-50
2021/07/03 13:00:07;;;;;;;4.85;4.10;;;;;;;;;;5024164;28;20048;-50
2021/07/03 13:02:35;;;;;;;6.10;3.95;;;;;;;;;;5029698;28;20058;-50
2021/07/03 13:05:03;;;;;;;5.30;4.03;;;;;;;;;;5023808;28;20076;-48
2021/07/03 13:07:30;;;;;;;4.88;4.00;;;;;;;;;;5032230;28;20041;-49
2021/07/03 13:09:57;;;;;;;4.80;3.55;;;;;;;;;;5040255;28;20044;-53
2021/07/03 13:12:30;;;;;;;4.75;3.78;;;;;;;;;;5021086;28;20499;-53
2021/07/03 13:14:56;;;;;;;5.30;4.35;;;;;;;;;;5028254;28;20120;-47
2021/07/03 13:17:23;;;;;;;8.20;4.10;;;;;;;;;;5015705;28;20406;-48
2021/07/03 13:19:50;;;;;;;5.13;4.05;;;;;;;;;;5024034;28;20128;-48
2021/07/03 13:22:17;;;;;;;4.68;3.80;;;;;;;;;;5013836;28;20515;-49
2021/07/03 13:24:44;;;;;;;6.72;3.58;;;;;;;;;;5027299;28;20056;-50
2021/07/03 13:27:10;;;;;;;6.07;4.20;;;;;;;;;;5020405;28;20131;-51
2021/07/03 13:29:37;;;;;;;4.55;3.50;;;;;;;;;;5031486;28;20069;-48
2021/07/03 13:32:07;;;;;;;5.15;4.18;;;;;;;;;;5037763;28;20486;-50
2021/07/03 13:34:35;;;;;;;4.70;3.70;;;;;;;;;;5030962;28;20041;-49
2021/07/03 13:37:02;;;;;;;4.65;3.80;;;;;;;;;;5013282;28;20038;-52
2021/07/03 13:39:29;;;;;;;5.60;3.83;;;;;;;;;;5030993;28;20053;-48
2021/07/03 13:41:55;;;;;;;5.50;3.92;;;;;;;;;;5018645;28;20049;-48
2021/07/03 13:44:22;;;;;;;4.30;3.58;;;;;;;;;;5029549;28;20117;-49
2021/07/03 13:46:49;;;;;;;5.75;4.05;;;;;;;;;;5015649;28;20526;-49
2021/07/03 13:49:16;;;;;;;6.40;3.70;;;;;;;;;;5013764;28;20133;-49
2021/07/03 13:51:43;;;;;;;4.35;3.47;;;;;;;;;;5023024;28;20080;-47
2021/07/03 13:54:09;;;;;;;4.43;3.70;;;;;;;;;;5012877;28;20088;-47
2021/07/03 13:56:36;;;;;;;5.78;4.07;;;;;;;;;;5024991;28;20040;-50
2021/07/03 13:59:03;;;;;;;4.75;3.83;;;;;;;;;;5029643;28;20510;-50
2021/07/03 14:01:30;;;;;;;6.32;3.50;;;;;;;;;;5030039;28;20049;-50
2021/07/03 14:03:59;;;;;;;7.28;3.88;;;;;;;;;;5047753;28;20076;-50
2021/07/03 14:06:25;;;;;;;5.72;3.42;;;;;;;;;;5016710;28;20120;-47
2021/07/03 14:08:52;;;;;;;5.60;3.42;;;;;;;;;;5028819;28;20140;-51
2021/07/03 14:11:19;;;;;;;5.45;3.63;;;;;;;;;;5037718;28;20045;-47
2021/07/03 14:13:45;;;;;;;5.05;3.95;;;;;;;;;;5026687;28;20113;-47
2021/07/03 14:16:12;;;;;;;5.55;3.50;;;;;;;;;;5023376;28;20054;-48
2021/07/03 14:18:39;;;;;;;4.95;3.65;;;;;;;;;;5023815;28;20038;-50
2021/07/03 14:21:06;;;;;;;5.60;3.15;;;;;;;;;;5010953;28;20058;-48
2021/07/03 14:23:33;;;;;;;6.63;3.72;;;;;;;;;;5027627;28;20033;-47
2021/07/03 14:26:00;;;;;;;4.15;3.53;;;;;;;;;;5021854;28;20128;-47
2021/07/03 14:28:27;;;;;;;6.45;3.50;;;;;;;;;;5031487;28;20045;-48
2021/07/03 14:30:54;;;;;;;4.50;3.70;;;;;;;;;;5029949;28;20060;-48
2021/07/03 14:33:20;;;;;;;4.57;3.30;;;;;;;;;;5031332;28;20071;-48
2021/07/03 14:35:47;;;;;;;5.60;3.63;;;;;;;;;;5034882;28;20042;-47
2021/07/03 14:38:14;;;;;;;4.10;3.42;;;;;;;;;;5034696;28;20077;-47
2021/07/03 14:40:41;;;;;;;5.43;3.72;;;;;;;;;;5024489;28;20125;-49
2021/07/03 14:43:07;;;;;;;5.57;3.58;;;;;;;;;;5025817;28;20042;-48
2021/07/03 14:45:34;;;;;;;4.93;3.25;;;;;;;;;;5014631;28;20060;-47
2021/07/03 14:48:01;;;;;;;5.55;5.00;;;;;;;;;;5014657;28;20069;-50